Time;durP1;ratioP1;P1;durP2;ratioP2;P2;SDS_P1;SDS_P2;PMS_P1;PMS_P2;Temp;Humidity;BMP_temperature;BMP_pressure;BME280_temperature;BME280_humidity;BME280_pressure;Samples;Min_cycle;Max_cycle;Signal;HPM_P1;HPM_P2
2022/05/17 00:01:55;;;;;;;13.07;4.40;;;;;;;;;;5057685;27;97010;-75
2022/05/17 00:04:22;;;;;;;14.05;4.45;;;;;;;;;;5061285;27;96522;-75
2022/05/17 00:06:49;;;;;;;15.70;4.93;;;;;;;;;;5074141;27;95378;-72
2022/05/17 00:09:17;;;;;;;16.45;4.55;;;;;;;;;;5077136;27;96473;-72
2022/05/17 00:11:44;;;;;;;20.52;4.63;;;;;;;;;;5074031;27;95460;-72
2022/05/17 00:14:11;;;;;;;13.38;4.25;;;;;;;;;;5073213;27;96761;-73
2022/05/17 00:16:38;;;;;;;26.48;5.07;;;;;;;;;;5073942;27;97334;-72
2022/05/17 00:19:05;;;;;;;15.82;4.70;;;;;;;;;;5073976;27;95540;-73
2022/05/17 00:21:31;;;;;;;19.48;4.30;;;;;;;;;;5072141;27;95384;-72
2022/05/17 00:23:58;;;;;;;18.73;5.20;;;;;;;;;;5071850;27;97688;-75
2022/05/17 00:26:25;;;;;;;10.02;4.40;;;;;;;;;;5071957;27;96952;-72
2022/05/17 00:28:51;;;;;;;13.20;4.35;;;;;;;;;;5074041;27;96673;-72
2022/05/17 00:31:18;;;;;;;14.48;4.35;;;;;;;;;;5076401;27;97307;-75
2022/05/17 00:33:45;;;;;;;29.55;4.88;;;;;;;;;;5073833;27;96670;-73
2022/05/17 00:36:17;;;;;;;25.38;4.63;;;;;;;;;;5071512;27;97281;-72
2022/05/17 00:38:44;;;;;;;28.95;6.03;;;;;;;;;;5071943;27;95584;-73
2022/05/17 00:41:10;;;;;;;13.48;4.43;;;;;;;;;;5073238;27;96841;-72
2022/05/17 00:46:38;;;;;;;16.05;4.90;;;;;;;;;;5073974;27;95199;-73
2022/05/17 00:49:06;;;;;;;16.80;5.50;;;;;;;;;;5073723;27;96581;-73
2022/05/17 00:51:32;;;;;;;14.93;4.88;;;;;;;;;;5073393;27;96771;-71
2022/05/17 00:54:06;;;;;;;17.92;5.10;;;;;;;;;;5076239;27;95293;-74
2022/05/17 00:56:33;;;;;;;15.95;5.90;;;;;;;;;;5072715;27;97517;-73
2022/05/17 00:59:00;;;;;;;21.83;5.00;;;;;;;;;;5072870;27;95038;-75
2022/05/17 01:01:29;;;;;;;19.50;6.35;;;;;;;;;;5072009;27;96929;-73
2022/05/17 01:04:03;;;;;;;17.52;5.32;;;;;;;;;;5073368;27;97278;-73
2022/05/17 01:06:35;;;;;;;22.85;5.22;;;;;;;;;;5073210;27;95100;-75
2022/05/17 01:09:01;;;;;;;27.30;5.43;;;;;;;;;;5071725;27;96584;-74
2022/05/17 01:11:28;;;;;;;15.57;4.97;;;;;;;;;;5071979;27;97300;-73
2022/05/17 01:16:40;;;;;;;17.20;5.05;;;;;;;;;;5071836;27;97755;-74
2022/05/17 01:19:08;;;;;;;9.18;4.80;;;;;;;;;;5073077;27;95288;-73
2022/05/17 01:21:34;;;;;;;12.90;5.53;;;;;;;;;;5072702;27;96737;-72
2022/05/17 01:24:00;;;;;;;15.50;5.60;;;;;;;;;;5050675;27;97428;-73
2022/05/17 01:26:28;;;;;;;14.20;5.70;;;;;;;;;;5055128;27;95383;-71
2022/05/17 01:28:54;;;;;;;17.60;6.28;;;;;;;;;;5070994;27;97062;-73
2022/05/17 01:31:21;;;;;;;28.15;6.30;;;;;;;;;;5071970;27;96864;-75
2022/05/17 01:33:47;;;;;;;17.15;5.70;;;;;;;;;;5072306;27;95347;-74
2022/05/17 01:36:15;;;;;;;16.42;5.63;;;;;;;;;;5055537;27;96081;-73
2022/05/17 01:38:45;;;;;;;15.30;5.40;;;;;;;;;;5052087;27;95849;-72
2022/05/17 01:41:12;;;;;;;11.70;5.60;;;;;;;;;;5058035;27;96916;-72
2022/05/17 01:43:38;;;;;;;13.30;5.13;;;;;;;;;;5074952;27;97207;-73
2022/05/17 01:46:06;;;;;;;13.60;5.85;;;;;;;;;;5074301;27;95246;-72
2022/05/17 01:48:34;;;;;;;12.70;5.38;;;;;;;;;;5075776;27;96035;-72
2022/05/17 01:51:00;;;;;;;18.38;5.43;;;;;;;;;;5072940;27;96190;-73
2022/05/17 01:53:27;;;;;;;14.88;5.80;;;;;;;;;;5075456;27;95314;-73
2022/05/17 01:55:53;;;;;;;12.50;5.30;;;;;;;;;;5074907;27;96828;-74
2022/05/17 01:58:20;;;;;;;13.65;4.90;;;;;;;;;;5078455;27;97749;-75
2022/05/17 02:00:46;;;;;;;19.48;5.20;;;;;;;;;;5074816;27;96431;-72
2022/05/17 02:03:13;;;;;;;15.63;5.43;;;;;;;;;;5075286;27;96259;-72
2022/05/17 02:05:39;;;;;;;18.08;6.13;;;;;;;;;;5075362;27;95332;-75
2022/05/17 02:08:05;;;;;;;10.82;5.45;;;;;;;;;;5076026;27;96174;-73
2022/05/17 02:10:32;;;;;;;14.60;5.50;;;;;;;;;;5074377;27;97232;-74
2022/05/17 02:12:58;;;;;;;16.05;5.80;;;;;;;;;;5075264;27;95354;-73
2022/05/17 02:15:25;;;;;;;11.07;5.40;;;;;;;;;;5076214;27;96708;-74
2022/05/17 02:17:52;;;;;;;14.35;5.40;;;;;;;;;;5076214;27;96167;-73
2022/05/17 02:20:19;;;;;;;11.35;5.70;;;;;;;;;;5078073;27;95237;-73
2022/05/17 02:22:45;;;;;;;15.63;6.35;;;;;;;;;;5074299;27;97438;-72
2022/05/17 02:25:11;;;;;;;15.10;5.95;;;;;;;;;;5075541;27;95242;-72
2022/05/17 02:27:38;;;;;;;16.17;6.10;;;;;;;;;;5075275;27;96749;-73
2022/05/17 02:30:06;;;;;;;16.83;6.38;;;;;;;;;;5075531;27;97279;-72
2022/05/17 02:32:32;;;;;;;15.30;5.90;;;;;;;;;;5074435;27;95406;-73
2022/05/17 02:34:58;;;;;;;12.75;6.05;;;;;;;;;;5074268;27;95875;-75
2022/05/17 02:37:25;;;;;;;17.63;6.50;;;;;;;;;;5075127;27;97325;-73
2022/05/17 02:39:51;;;;;;;15.00;6.07;;;;;;;;;;5074866;27;95083;-73
2022/05/17 02:42:18;;;;;;;22.00;6.20;;;;;;;;;;5077610;27;96860;-72
2022/05/17 02:44:44;;;;;;;21.17;6.55;;;;;;;;;;5075061;27;95343;-72
2022/05/17 02:47:10;;;;;;;14.32;6.78;;;;;;;;;;5075032;27;96918;-73
2022/05/17 02:49:40;;;;;;;16.90;5.97;;;;;;;;;;5074459;27;97556;-73
2022/05/17 02:52:07;;;;;;;12.27;5.97;;;;;;;;;;5074423;27;95259;-73
2022/05/17 02:54:33;;;;;;;16.45;6.38;;;;;;;;;;5051989;27;96776;-72
2022/05/17 02:57:00;;;;;;;12.45;5.80;;;;;;;;;;5066321;27;96379;-75
2022/05/17 02:59:26;;;;;;;13.32;5.90;;;;;;;;;;5072932;27;95297;-76
2022/05/17 03:01:52;;;;;;;24.42;6.13;;;;;;;;;;5074809;27;96811;-73
2022/05/17 03:04:19;;;;;;;13.48;6.38;;;;;;;;;;5077733;27;98216;-75
2022/05/17 03:06:46;;;;;;;16.55;6.20;;;;;;;;;;5074329;27;95748;-73
2022/05/17 03:09:13;;;;;;;18.23;6.53;;;;;;;;;;5074142;27;97255;-75
2022/05/17 03:11:42;;;;;;;21.98;5.95;;;;;;;;;;5074083;27;95803;-76
2022/05/17 03:14:09;;;;;;;16.50;6.13;;;;;;;;;;5074594;27;97377;-76
2022/05/17 03:16:36;;;;;;;16.55;6.13;;;;;;;;;;5074203;27;97384;-75
2022/05/17 03:19:05;;;;;;;17.20;6.85;;;;;;;;;;5074800;27;95296;-76
2022/05/17 03:21:31;;;;;;;23.23;6.80;;;;;;;;;;5072307;27;96815;-77
2022/05/17 20:04:48;;;;;;;11.90;5.40;;;;;;;;;;5049292;27;95255;-72
2022/05/17 20:07:15;;;;;;;13.18;4.95;;;;;;;;;;5024087;27;97310;-72
2022/05/17 20:09:42;;;;;;;14.18;5.85;;;;;;;;;;5038128;27;95923;-72
2022/05/17 20:12:10;;;;;;;13.02;5.15;;;;;;;;;;5038528;27;96810;-74
2022/05/17 20:14:37;;;;;;;19.48;5.38;;;;;;;;;;5035766;27;97409;-74
2022/05/17 20:17:04;;;;;;;11.88;4.85;;;;;;;;;;5043428;27;95910;-72
2022/05/17 20:19:30;;;;;;;14.50;5.45;;;;;;;;;;5035199;27;96768;-74
2022/05/17 20:21:58;;;;;;;21.13;5.10;;;;;;;;;;5046803;27;97172;-75
2022/05/17 20:24:28;;;;;;;13.27;5.57;;;;;;;;;;5035601;27;96587;-72
2022/05/17 20:26:55;;;;;;;19.55;5.88;;;;;;;;;;5031087;27;97424;-72
2022/05/17 20:29:22;;;;;;;13.00;5.30;;;;;;;;;;5028138;27;95163;-72
2022/05/17 20:31:49;;;;;;;10.98;5.05;;;;;;;;;;5029498;27;96762;-72
2022/05/17 20:34:16;;;;;;;13.65;5.20;;;;;;;;;;5037768;27;96122;-73
2022/05/17 20:36:43;;;;;;;11.38;5.32;;;;;;;;;;5026412;27;95548;-72
2022/05/17 20:39:14;;;;;;;16.15;6.03;;;;;;;;;;5046924;27;96761;-71
2022/05/17 20:41:42;;;;;;;20.83;5.18;;;;;;;;;;5038099;27;97680;-71
2022/05/17 20:44:11;;;;;;;14.30;5.70;;;;;;;;;;5026265;27;95588;-74
2022/05/17 20:49:23;;;;;;;13.75;5.60;;;;;;;;;;5044071;27;95361;-74
2022/05/17 20:51:50;;;;;;;12.80;5.65;;;;;;;;;;5035795;27;97287;-73
2022/05/17 20:54:18;;;;;;;15.52;5.75;;;;;;;;;;5036101;27;97310;-73
2022/05/17 20:56:45;;;;;;;15.00;5.68;;;;;;;;;;5036038;27;95289;-73
2022/05/17 20:59:12;;;;;;;16.38;6.07;;;;;;;;;;5043577;27;96697;-73
2022/05/17 21:01:39;;;;;;;12.18;5.88;;;;;;;;;;5030663;27;98142;-73
2022/05/17 21:04:06;;;;;;;13.95;5.60;;;;;;;;;;5041933;27;95867;-72
2022/05/17 21:06:34;;;;;;;17.33;7.10;;;;;;;;;;5038267;27;96830;-72
2022/05/17 21:09:01;;;;;;;14.05;6.10;;;;;;;;;;5043707;27;97575;-72
2022/05/17 21:11:27;;;;;;;16.30;6.70;;;;;;;;;;5034193;27;96899;-72
2022/05/17 21:13:54;;;;;;;15.73;6.47;;;;;;;;;;5036969;27;97086;-72
2022/05/17 21:16:22;;;;;;;17.75;5.95;;;;;;;;;;5028042;27;95498;-72
2022/05/17 21:18:48;;;;;;;17.95;6.63;;;;;;;;;;5014367;28;96763;-72
2022/05/17 21:21:15;;;;;;;12.45;5.80;;;;;;;;;;5026797;27;97284;-73
2022/05/17 21:23:42;;;;;;;10.95;5.82;;;;;;;;;;5014783;28;95333;-73
2022/05/17 21:26:09;;;;;;;16.95;6.22;;;;;;;;;;5014476;28;96435;-73
2022/05/17 21:28:35;;;;;;;18.45;6.60;;;;;;;;;;5029891;28;97122;-73
2022/05/17 21:31:03;;;;;;;14.80;6.88;;;;;;;;;;5036780;27;95324;-72
2022/05/17 21:33:30;;;;;;;16.83;6.20;;;;;;;;;;5016257;27;97078;-72
2022/05/17 21:35:58;;;;;;;17.15;6.85;;;;;;;;;;5033089;28;95014;-72
2022/05/17 21:38:25;;;;;;;19.33;6.28;;;;;;;;;;5033264;28;95655;-72
2022/05/17 21:40:52;;;;;;;13.57;6.95;;;;;;;;;;5021648;28;97302;-75
2022/05/17 21:43:18;;;;;;;20.77;6.65;;;;;;;;;;5014104;28;96012;-72
2022/05/17 21:45:44;;;;;;;16.02;6.97;;;;;;;;;;5024543;28;96868;-73
2022/05/17 21:48:11;;;;;;;15.95;6.57;;;;;;;;;;5032565;27;97245;-73
2022/05/17 21:50:42;;;;;;;19.15;6.93;;;;;;;;;;5024612;27;95231;-73
2022/05/17 21:53:09;;;;;;;15.75;6.53;;;;;;;;;;5021225;28;96820;-75
2022/05/17 21:55:36;;;;;;;17.08;7.05;;;;;;;;;;5032413;27;96392;-72
2022/05/17 21:58:23;;;;;;;14.63;7.13;;;;;;;;;;5032090;28;96505;-73
2022/05/17 22:00:51;;;;;;;15.68;7.10;;;;;;;;;;5020759;27;97276;-75
2022/05/17 22:03:19;;;;;;;13.02;6.90;;;;;;;;;;5022206;27;96404;-73
2022/05/17 22:05:46;;;;;;;15.15;7.90;;;;;;;;;;5027098;28;96775;-73
2022/05/17 22:08:15;;;;;;;14.50;7.22;;;;;;;;;;5024540;28;97487;-74
2022/05/17 22:13:44;;;;;;;26.35;7.65;;;;;;;;;;5019351;28;96805;-74
2022/05/17 22:16:23;;;;;;;23.00;8.27;;;;;;;;;;5026654;28;96542;-74
2022/05/17 22:18:51;;;;;;;16.13;7.10;;;;;;;;;;5031799;28;96889;-72
2022/05/17 22:21:18;;;;;;;19.73;7.82;;;;;;;;;;5031729;28;97250;-72
2022/05/17 22:23:45;;;;;;;16.58;7.50;;;;;;;;;;5032264;27;96337;-72
2022/05/17 22:26:12;;;;;;;18.27;7.53;;;;;;;;;;5022370;28;96784;-72
2022/05/17 22:28:38;;;;;;;10.82;7.45;;;;;;;;;;5021837;28;97325;-72
2022/05/17 22:31:06;;;;;;;18.35;7.07;;;;;;;;;;5031901;27;96228;-72
2022/05/17 22:33:32;;;;;;;15.13;7.50;;;;;;;;;;5032045;28;97133;-74
2022/05/17 22:35:59;;;;;;;21.73;8.05;;;;;;;;;;5028525;27;96594;-74
2022/05/17 22:38:26;;;;;;;17.13;7.78;;;;;;;;;;5021858;28;96956;-73
2022/05/17 22:40:55;;;;;;;21.08;7.78;;;;;;;;;;5021574;28;97322;-74
2022/05/17 22:43:22;;;;;;;17.42;7.78;;;;;;;;;;5019370;28;95570;-73
2022/05/17 22:48:33;;;;;;;18.70;7.45;;;;;;;;;;4993079;28;96158;-74
2022/05/17 22:50:59;;;;;;;13.80;7.70;;;;;;;;;;5011558;28;95382;-74
2022/05/17 22:53:26;;;;;;;21.55;8.40;;;;;;;;;;5032098;27;97104;-73
2022/05/17 22:55:52;;;;;;;22.50;8.73;;;;;;;;;;5027281;27;97076;-73
2022/05/17 22:58:20;;;;;;;26.95;8.35;;;;;;;;;;5033625;27;96277;-73
2022/05/17 23:00:47;;;;;;;18.92;8.23;;;;;;;;;;5023283;28;97621;-75
2022/05/17 23:03:13;;;;;;;32.00;8.43;;;;;;;;;;5028403;28;95335;-75
2022/05/17 23:05:40;;;;;;;15.35;8.05;;;;;;;;;;5016679;28;96917;-75
2022/05/17 23:08:07;;;;;;;18.65;8.27;;;;;;;;;;5031677;27;98113;-73
2022/05/17 23:10:34;;;;;;;19.52;9.10;;;;;;;;;;5025690;28;95413;-73
2022/05/17 23:13:00;;;;;;;16.85;8.60;;;;;;;;;;5027473;28;96804;-72
2022/05/17 23:15:27;;;;;;;22.13;8.93;;;;;;;;;;5030629;27;97339;-73
2022/05/17 23:17:53;;;;;;;23.20;8.45;;;;;;;;;;5012347;27;96241;-74
2022/05/17 23:20:22;;;;;;;32.15;9.00;;;;;;;;;;5027826;28;97314;-72
2022/05/17 23:22:48;;;;;;;29.60;9.27;;;;;;;;;;5011546;28;95979;-73
2022/05/17 23:30:46;;;;;;;17.13;8.85;;;;;;;;;;5021232;27;96356;-73
2022/05/17 23:33:12;;;;;;;17.67;9.35;;;;;;;;;;5025615;28;96886;-73
2022/05/17 23:35:39;;;;;;;32.53;9.65;;;;;;;;;;5030034;27;97374;-73
2022/05/17 23:38:05;;;;;;;40.90;9.35;;;;;;;;;;5026692;27;95716;-73
2022/05/17 23:40:33;;;;;;;29.05;9.73;;;;;;;;;;5029953;27;97337;-75
2022/05/17 23:43:00;;;;;;;31.98;9.18;;;;;;;;;;5018835;28;97352;-72
2022/05/17 23:45:27;;;;;;;22.98;9.70;;;;;;;;;;5031171;27;97318;-72
2022/05/17 23:47:55;;;;;;;20.48;9.32;;;;;;;;;;5021945;27;97186;-74
2022/05/17 23:50:22;;;;;;;22.17;8.73;;;;;;;;;;5031038;27;96511;-73
2022/05/17 23:52:48;;;;;;;29.08;9.80;;;;;;;;;;5029267;28;96861;-72
2022/05/17 23:55:15;;;;;;;27.73;10.13;;;;;;;;;;5030408;28;97965;-74
2022/05/17 23:57:43;;;;;;;17.92;9.15;;;;;;;;;;5030202;28;95321;-73
